sensor_id;sensor_type;location;lat;lon;timestamp;P1;durP1;ratioP1;P2;durP2;ratioP2
43042;SDS011;28667;50.758;6.096;2023-07-20T10:22:25;1.33;;;1.13;;
43042;SDS011;28667;50.758;6.096;2023-07-20T10:24:52;1.42;;;1.27;;
43042;SDS011;28667;50.758;6.096;2023-07-20T10:27:23;3.65;;;1.60;;
43042;SDS011;28667;50.758;6.096;2023-07-20T10:29:48;1.77;;;1.00;;
43042;SDS011;28667;50.758;6.096;2023-07-20T10:32:16;2.80;;;1.10;;
43042;SDS011;28667;50.758;6.096;2023-07-20T10:34:42;3.15;;;1.20;;
43042;SDS011;28667;50.758;6.096;2023-07-20T10:37:08;1.38;;;1.27;;
43042;SDS011;28667;50.758;6.096;2023-07-20T10:39:33;2.17;;;1.30;;
43042;SDS011;28667;50.758;6.096;2023-07-20T10:42:00;2.25;;;1.90;;
43042;SDS011;28667;50.758;6.096;2023-07-20T10:44:33;1.60;;;1.15;;
43042;SDS011;28667;50.758;6.096;2023-07-20T10:46:59;2.92;;;1.70;;
43042;SDS011;28667;50.758;6.096;2023-07-20T10:49:34;1.67;;;1.40;;
43042;SDS011;28667;50.758;6.096;2023-07-20T10:52:04;3.42;;;1.25;;
43042;SDS011;28667;50.758;6.096;2023-07-20T10:56:57;1.23;;;1.13;;
43042;SDS011;28667;50.758;6.096;2023-07-20T10:59:43;2.00;;;1.17;;
43042;SDS011;28667;50.758;6.096;2023-07-20T11:02:12;1.08;;;1.00;;
43042;SDS011;28667;50.758;6.096;2023-07-20T11:04:38;1.08;;;0.90;;
43042;SDS011;28667;50.758;6.096;2023-07-20T11:07:04;1.30;;;1.20;;
43042;SDS011;28667;50.758;6.096;2023-07-20T11:09:34;1.25;;;1.05;;
43042;SDS011;28667;50.758;6.096;2023-07-20T11:12:10;2.70;;;1.20;;
43042;SDS011;28667;50.758;6.096;2023-07-20T11:14:43;1.92;;;1.05;;
43042;SDS011;28667;50.758;6.096;2023-07-20T11:17:18;2.22;;;0.98;;
43042;SDS011;28667;50.758;6.096;2023-07-20T11:19:50;0.93;;;0.90;;
43042;SDS011;28667;50.758;6.096;2023-07-20T11:22:21;1.85;;;1.10;;
43042;SDS011;28667;50.758;6.096;2023-07-20T11:24:47;1.50;;;1.13;;
43042;SDS011;28667;50.758;6.096;2023-07-20T11:27:16;1.33;;;1.23;;
43042;SDS011;28667;50.758;6.096;2023-07-20T11:29:45;1.33;;;0.90;;
43042;SDS011;28667;50.758;6.096;2023-07-20T11:32:10;0.93;;;0.90;;
43042;SDS011;28667;50.758;6.096;2023-07-20T11:34:36;0.93;;;0.93;;
43042;SDS011;28667;50.758;6.096;2023-07-20T11:37:02;1.17;;;0.90;;
43042;SDS011;28667;50.758;6.096;2023-07-20T11:39:29;0.95;;;0.93;;
43042;SDS011;28667;50.758;6.096;2023-07-20T11:41:55;0.70;;;0.70;;
43042;SDS011;28667;50.758;6.096;2023-07-20T11:44:22;0.70;;;0.70;;
43042;SDS011;28667;50.758;6.096;2023-07-20T11:49:29;0.60;;;0.60;;
43042;SDS011;28667;50.758;6.096;2023-07-20T11:51:55;1.02;;;0.80;;
43042;SDS011;28667;50.758;6.096;2023-07-20T11:54:21;1.73;;;1.20;;
43042;SDS011;28667;50.758;6.096;2023-07-20T11:56:48;0.70;;;0.70;;
43042;SDS011;28667;50.758;6.096;2023-07-20T11:59:13;3.15;;;0.80;;
43042;SDS011;28667;50.758;6.096;2023-07-20T12:01:39;0.90;;;0.90;;
43042;SDS011;28667;50.758;6.096;2023-07-20T12:04:05;2.83;;;0.90;;
43042;SDS011;28667;50.758;6.096;2023-07-20T12:06:32;2.53;;;0.88;;
43042;SDS011;28667;50.758;6.096;2023-07-20T12:08:58;0.88;;;0.88;;
43042;SDS011;28667;50.758;6.096;2023-07-20T12:11:34;1.15;;;0.95;;
43042;SDS011;28667;50.758;6.096;2023-07-20T12:14:02;1.38;;;0.90;;
43042;SDS011;28667;50.758;6.096;2023-07-20T12:16:29;1.08;;;0.90;;
43042;SDS011;28667;50.758;6.096;2023-07-20T12:18:59;0.80;;;0.80;;
43042;SDS011;28667;50.758;6.096;2023-07-20T12:21:26;0.70;;;0.60;;
43042;SDS011;28667;50.758;6.096;2023-07-20T12:23:52;0.80;;;0.70;;
43042;SDS011;28667;50.758;6.096;2023-07-20T12:26:18;1.00;;;0.90;;
43042;SDS011;28667;50.758;6.096;2023-07-20T12:28:47;1.80;;;0.82;;
43042;SDS011;28667;50.758;6.096;2023-07-20T12:31:14;1.30;;;0.73;;
43042;SDS011;28667;50.758;6.096;2023-07-20T12:33:39;0.95;;;0.60;;
43042;SDS011;28667;50.758;6.096;2023-07-20T12:36:05;0.73;;;0.60;;
43042;SDS011;28667;50.758;6.096;2023-07-20T12:38:31;1.13;;;0.70;;
43042;SDS011;28667;50.758;6.096;2023-07-20T12:40:57;2.22;;;0.82;;
43042;SDS011;28667;50.758;6.096;2023-07-20T12:43:23;1.00;;;0.77;;
43042;SDS011;28667;50.758;6.096;2023-07-20T12:45:49;0.80;;;0.60;;
43042;SDS011;28667;50.758;6.096;2023-07-20T12:48:15;1.80;;;0.77;;
43042;SDS011;28667;50.758;6.096;2023-07-20T12:50:41;1.23;;;0.70;;
43042;SDS011;28667;50.758;6.096;2023-07-20T12:53:07;0.77;;;0.77;;
43042;SDS011;28667;50.758;6.096;2023-07-20T12:55:33;0.77;;;0.60;;
43042;SDS011;28667;50.758;6.096;2023-07-20T12:57:59;1.20;;;0.80;;
43042;SDS011;28667;50.758;6.096;2023-07-20T13:00:24;1.35;;;0.55;;
43042;SDS011;28667;50.758;6.096;2023-07-20T13:02:51;1.10;;;0.70;;
43042;SDS011;28667;50.758;6.096;2023-07-20T13:05:17;0.88;;;0.60;;
43042;SDS011;28667;50.758;6.096;2023-07-20T13:07:42;0.82;;;0.60;;
43042;SDS011;28667;50.758;6.096;2023-07-20T13:10:10;1.80;;;0.82;;
43042;SDS011;28667;50.758;6.096;2023-07-20T13:12:36;1.08;;;0.95;;
43042;SDS011;28667;50.758;6.096;2023-07-20T13:15:03;0.70;;;0.60;;
43042;SDS011;28667;50.758;6.096;2023-07-20T13:17:34;3.13;;;0.80;;
43042;SDS011;28667;50.758;6.096;2023-07-20T13:20:00;0.90;;;0.60;;
43042;SDS011;28667;50.758;6.096;2023-07-20T13:22:27;1.15;;;0.70;;
43042;SDS011;28667;50.758;6.096;2023-07-20T13:24:53;0.80;;;0.80;;
43042;SDS011;28667;50.758;6.096;2023-07-20T13:27:19;0.60;;;0.60;;
43042;SDS011;28667;50.758;6.096;2023-07-20T13:29:45;0.82;;;0.75;;
43042;SDS011;28667;50.758;6.096;2023-07-20T13:32:14;1.65;;;0.60;;
43042;SDS011;28667;50.758;6.096;2023-07-20T13:34:40;0.50;;;0.50;;
43042;SDS011;28667;50.758;6.096;2023-07-20T13:37:07;0.75;;;0.70;;
43042;SDS011;28667;50.758;6.096;2023-07-20T13:39:33;0.65;;;0.60;;
43042;SDS011;28667;50.758;6.096;2023-07-20T13:41:59;1.02;;;0.55;;
43042;SDS011;28667;50.758;6.096;2023-07-20T13:44:27;2.13;;;0.70;;
43042;SDS011;28667;50.758;6.096;2023-07-20T13:46:53;0.82;;;0.55;;
43042;SDS011;28667;50.758;6.096;2023-07-20T13:49:19;0.70;;;0.50;;
43042;SDS011;28667;50.758;6.096;2023-07-20T13:51:44;0.68;;;0.60;;
43042;SDS011;28667;50.758;6.096;2023-07-20T13:54:10;1.48;;;0.52;;
43042;SDS011;28667;50.758;6.096;2023-07-20T13:56:37;1.58;;;0.60;;
43042;SDS011;28667;50.758;6.096;2023-07-20T13:59:02;0.85;;;0.77;;
43042;SDS011;28667;50.758;6.096;2023-07-20T14:01:28;1.15;;;0.60;;
43042;SDS011;28667;50.758;6.096;2023-07-20T14:03:55;3.35;;;1.17;;
43042;SDS011;28667;50.758;6.096;2023-07-20T14:06:21;0.60;;;0.60;;
43042;SDS011;28667;50.758;6.096;2023-07-20T14:08:47;3.63;;;0.80;;
43042;SDS011;28667;50.758;6.096;2023-07-20T14:11:14;0.60;;;0.60;;
43042;SDS011;28667;50.758;6.096;2023-07-20T14:13:40;0.70;;;0.60;;
43042;SDS011;28667;50.758;6.096;2023-07-20T14:16:06;1.67;;;1.58;;
43042;SDS011;28667;50.758;6.096;2023-07-20T14:18:33;1.75;;;0.63;;
43042;SDS011;28667;50.758;6.096;2023-07-20T14:20:58;0.47;;;0.45;;
43042;SDS011;28667;50.758;6.096;2023-07-20T14:23:25;2.05;;;0.65;;
43042;SDS011;28667;50.758;6.096;2023-07-20T14:25:50;0.50;;;0.50;;
43042;SDS011;28667;50.758;6.096;2023-07-20T14:28:16;0.47;;;0.43;;
43042;SDS011;28667;50.758;6.096;2023-07-20T14:30:42;0.90;;;0.70;;
43042;SDS011;28667;50.758;6.096;2023-07-20T14:33:08;0.57;;;0.57;;
43042;SDS011;28667;50.758;6.096;2023-07-20T14:35:33;0.50;;;0.50;;
43042;SDS011;28667;50.758;6.096;2023-07-20T14:38:00;0.75;;;0.40;;
43042;SDS011;28667;50.758;6.096;2023-07-20T14:40:26;0.75;;;0.40;;
43042;SDS011;28667;50.758;6.096;2023-07-20T14:42:52;0.40;;;0.40;;
43042;SDS011;28667;50.758;6.096;2023-07-20T14:45:17;0.65;;;0.63;;
43042;SDS011;28667;50.758;6.096;2023-07-20T14:47:43;0.47;;;0.35;;
43042;SDS011;28667;50.758;6.096;2023-07-20T14:50:10;0.50;;;0.50;;
43042;SDS011;28667;50.758;6.096;2023-07-20T14:52:36;0.60;;;0.60;;
43042;SDS011;28667;50.758;6.096;2023-07-20T14:55:02;0.60;;;0.60;;
43042;SDS011;28667;50.758;6.096;2023-07-20T14:57:28;1.75;;;1.00;;
43042;SDS011;28667;50.758;6.096;2023-07-20T14:59:54;0.80;;;0.70;;
43042;SDS011;28667;50.758;6.096;2023-07-20T15:02:20;0.63;;;0.60;;
43042;SDS011;28667;50.758;6.096;2023-07-20T15:04:46;1.88;;;0.63;;
43042;SDS011;28667;50.758;6.096;2023-07-20T15:07:14;0.75;;;0.60;;
43042;SDS011;28667;50.758;6.096;2023-07-20T15:09:41;0.60;;;0.60;;
43042;SDS011;28667;50.758;6.096;2023-07-20T15:12:07;1.35;;;0.60;;
43042;SDS011;28667;50.758;6.096;2023-07-20T15:14:33;0.47;;;0.40;;
43042;SDS011;28667;50.758;6.096;2023-07-20T15:16:58;0.73;;;0.65;;
43042;SDS011;28667;50.758;6.096;2023-07-20T15:19:24;0.47;;;0.45;;
43042;SDS011;28667;50.758;6.096;2023-07-20T15:21:50;0.63;;;0.60;;
43042;SDS011;28667;50.758;6.096;2023-07-20T15:24:15;1.60;;;0.60;;
43042;SDS011;28667;50.758;6.096;2023-07-20T15:26:41;0.60;;;0.55;;
43042;SDS011;28667;50.758;6.096;2023-07-20T15:29:07;0.60;;;0.60;;
43042;SDS011;28667;50.758;6.096;2023-07-20T15:31:33;0.88;;;0.65;;
43042;SDS011;28667;50.758;6.096;2023-07-20T15:33:59;1.85;;;0.50;;
43042;SDS011;28667;50.758;6.096;2023-07-20T15:36:24;1.08;;;0.60;;
43042;SDS011;28667;50.758;6.096;2023-07-20T15:38:50;0.70;;;0.50;;
43042;SDS011;28667;50.758;6.096;2023-07-20T15:41:16;0.95;;;0.60;;
43042;SDS011;28667;50.758;6.096;2023-07-20T15:43:42;0.80;;;0.30;;
43042;SDS011;28667;50.758;6.096;2023-07-20T15:46:44;0.50;;;0.50;;
43042;SDS011;28667;50.758;6.096;2023-07-20T15:49:06;0.45;;;0.45;;
43042;SDS011;28667;50.758;6.096;2023-07-20T15:51:32;1.70;;;0.57;;
43042;SDS011;28667;50.758;6.096;2023-07-20T15:54:01;1.63;;;0.65;;
43042;SDS011;28667;50.758;6.096;2023-07-20T15:56:33;0.40;;;0.40;;
43042;SDS011;28667;50.758;6.096;2023-07-20T15:58:59;0.77;;;0.77;;
43042;SDS011;28667;50.758;6.096;2023-07-20T16:01:25;0.55;;;0.55;;
43042;SDS011;28667;50.758;6.096;2023-07-20T16:03:51;0.50;;;0.50;;
43042;SDS011;28667;50.758;6.096;2023-07-20T16:06:17;0.90;;;0.55;;
43042;SDS011;28667;50.758;6.096;2023-07-20T16:08:42;0.43;;;0.40;;
43042;SDS011;28667;50.758;6.096;2023-07-20T16:11:08;0.73;;;0.57;;
43042;SDS011;28667;50.758;6.096;2023-07-20T16:13:34;1.40;;;0.50;;
43042;SDS011;28667;50.758;6.096;2023-07-20T16:16:00;0.40;;;0.40;;
43042;SDS011;28667;50.758;6.096;2023-07-20T16:18:26;0.95;;;0.55;;
43042;SDS011;28667;50.758;6.096;2023-07-20T16:20:52;0.88;;;0.60;;
43042;SDS011;28667;50.758;6.096;2023-07-20T16:23:19;3.67;;;0.50;;
43042;SDS011;28667;50.758;6.096;2023-07-20T16:25:45;1.52;;;0.70;;
43042;SDS011;28667;50.758;6.096;2023-07-20T16:28:12;1.10;;;1.00;;
43042;SDS011;28667;50.758;6.096;2023-07-20T16:30:37;0.45;;;0.45;;
43042;SDS011;28667;50.758;6.096;2023-07-20T16:33:03;1.25;;;0.50;;
43042;SDS011;28667;50.758;6.096;2023-07-20T16:35:29;0.77;;;0.60;;
43042;SDS011;28667;50.758;6.096;2023-07-20T16:37:55;0.60;;;0.60;;
43042;SDS011;28667;50.758;6.096;2023-07-20T16:40:21;0.70;;;0.70;;
43042;SDS011;28667;50.758;6.096;2023-07-20T16:42:46;2.58;;;0.68;;
43042;SDS011;28667;50.758;6.096;2023-07-20T16:45:12;1.75;;;0.63;;
43042;SDS011;28667;50.758;6.096;2023-07-20T16:47:38;1.50;;;0.40;;
43042;SDS011;28667;50.758;6.096;2023-07-20T16:50:04;2.60;;;0.60;;
43042;SDS011;28667;50.758;6.096;2023-07-20T16:52:30;1.33;;;0.63;;
43042;SDS011;28667;50.758;6.096;2023-07-20T16:54:56;0.80;;;0.60;;
43042;SDS011;28667;50.758;6.096;2023-07-20T16:57:22;0.40;;;0.40;;
43042;SDS011;28667;50.758;6.096;2023-07-20T16:59:47;0.38;;;0.38;;
43042;SDS011;28667;50.758;6.096;2023-07-20T17:02:14;1.70;;;0.70;;
43042;SDS011;28667;50.758;6.096;2023-07-20T17:04:40;0.98;;;0.90;;
43042;SDS011;28667;50.758;6.096;2023-07-20T17:07:05;0.98;;;0.70;;
43042;SDS011;28667;50.758;6.096;2023-07-20T17:09:31;1.23;;;0.80;;
43042;SDS011;28667;50.758;6.096;2023-07-20T17:11:59;0.50;;;0.50;;
43042;SDS011;28667;50.758;6.096;2023-07-20T17:14:25;0.73;;;0.70;;
43042;SDS011;28667;50.758;6.096;2023-07-20T17:16:51;1.80;;;0.88;;
43042;SDS011;28667;50.758;6.096;2023-07-20T17:19:17;0.50;;;0.50;;
43042;SDS011;28667;50.758;6.096;2023-07-20T17:21:43;0.80;;;0.70;;
43042;SDS011;28667;50.758;6.096;2023-07-20T17:24:10;0.75;;;0.63;;
43042;SDS011;28667;50.758;6.096;2023-07-20T17:26:36;0.73;;;0.63;;
43042;SDS011;28667;50.758;6.096;2023-07-20T17:29:02;1.00;;;0.38;;
43042;SDS011;28667;50.758;6.096;2023-07-20T17:31:29;1.38;;;1.08;;
43042;SDS011;28667;50.758;6.096;2023-07-20T17:33:56;1.92;;;0.70;;
43042;SDS011;28667;50.758;6.096;2023-07-20T17:36:21;1.58;;;0.50;;
43042;SDS011;28667;50.758;6.096;2023-07-20T17:38:47;1.45;;;0.68;;
43042;SDS011;28667;50.758;6.096;2023-07-20T17:41:14;0.75;;;0.57;;
43042;SDS011;28667;50.758;6.096;2023-07-20T17:43:40;0.75;;;0.63;;
43042;SDS011;28667;50.758;6.096;2023-07-20T17:46:06;0.65;;;0.65;;
43042;SDS011;28667;50.758;6.096;2023-07-20T17:48:32;0.70;;;0.70;;
43042;SDS011;28667;50.758;6.096;2023-07-20T17:50:58;0.98;;;0.80;;
43042;SDS011;28667;50.758;6.096;2023-07-20T17:53:24;1.00;;;0.80;;
43042;SDS011;28667;50.758;6.096;2023-07-20T17:55:52;0.75;;;0.70;;
43042;SDS011;28667;50.758;6.096;2023-07-20T17:58:18;0.80;;;0.80;;
43042;SDS011;28667;50.758;6.096;2023-07-20T18:00:44;1.27;;;0.73;;
43042;SDS011;28667;50.758;6.096;2023-07-20T18:03:09;0.65;;;0.50;;
43042;SDS011;28667;50.758;6.096;2023-07-20T18:05:36;1.20;;;0.70;;
43042;SDS011;28667;50.758;6.096;2023-07-20T18:08:02;2.92;;;0.60;;
43042;SDS011;28667;50.758;6.096;2023-07-20T18:10:28;1.02;;;0.70;;
43042;SDS011;28667;50.758;6.096;2023-07-20T18:12:54;1.05;;;0.68;;
43042;SDS011;28667;50.758;6.096;2023-07-20T18:15:20;1.13;;;0.63;;
43042;SDS011;28667;50.758;6.096;2023-07-20T18:17:45;0.55;;;0.50;;
43042;SDS011;28667;50.758;6.096;2023-07-20T18:20:11;0.57;;;0.57;;
43042;SDS011;28667;50.758;6.096;2023-07-20T18:22:37;0.60;;;0.60;;
43042;SDS011;28667;50.758;6.096;2023-07-20T18:25:03;1.33;;;0.80;;
43042;SDS011;28667;50.758;6.096;2023-07-20T18:27:30;0.60;;;0.60;;
43042;SDS011;28667;50.758;6.096;2023-07-20T18:29:56;0.45;;;0.45;;
43042;SDS011;28667;50.758;6.096;2023-07-20T18:32:22;1.30;;;0.90;;
43042;SDS011;28667;50.758;6.096;2023-07-20T18:34:48;0.98;;;0.80;;
43042;SDS011;28667;50.758;6.096;2023-07-20T18:37:15;1.52;;;0.68;;
43042;SDS011;28667;50.758;6.096;2023-07-20T18:39:46;0.50;;;0.50;;
43042;SDS011;28667;50.758;6.096;2023-07-20T18:42:12;0.60;;;0.60;;
43042;SDS011;28667;50.758;6.096;2023-07-20T18:44:38;1.92;;;0.65;;
43042;SDS011;28667;50.758;6.096;2023-07-20T18:47:04;1.15;;;0.80;;
43042;SDS011;28667;50.758;6.096;2023-07-20T18:49:30;2.17;;;0.95;;
43042;SDS011;28667;50.758;6.096;2023-07-20T18:51:57;1.10;;;1.00;;
43042;SDS011;28667;50.758;6.096;2023-07-20T18:54:23;0.65;;;0.65;;
43042;SDS011;28667;50.758;6.096;2023-07-20T18:56:49;3.03;;;0.93;;
43042;SDS011;28667;50.758;6.096;2023-07-20T18:59:15;1.10;;;1.00;;
43042;SDS011;28667;50.758;6.096;2023-07-20T19:01:40;0.88;;;0.70;;
43042;SDS011;28667;50.758;6.096;2023-07-20T19:04:06;0.68;;;0.68;;
43042;SDS011;28667;50.758;6.096;2023-07-20T19:06:32;0.90;;;0.70;;
43042;SDS011;28667;50.758;6.096;2023-07-20T19:08:58;0.57;;;0.57;;
43042;SDS011;28667;50.758;6.096;2023-07-20T19:11:24;1.15;;;0.85;;
43042;SDS011;28667;50.758;6.096;2023-07-20T19:13:50;1.35;;;1.25;;
43042;SDS011;28667;50.758;6.096;2023-07-20T19:16:16;1.80;;;1.33;;
43042;SDS011;28667;50.758;6.096;2023-07-20T19:18:41;5.35;;;1.35;;
43042;SDS011;28667;50.758;6.096;2023-07-20T19:21:08;2.58;;;1.83;;
43042;SDS011;28667;50.758;6.096;2023-07-20T19:23:34;4.25;;;1.63;;
43042;SDS011;28667;50.758;6.096;2023-07-20T19:26:09;3.13;;;1.73;;
43042;SDS011;28667;50.758;6.096;2023-07-20T19:28:36;6.00;;;2.15;;
43042;SDS011;28667;50.758;6.096;2023-07-20T19:31:04;2.90;;;2.60;;
43042;SDS011;28667;50.758;6.096;2023-07-20T19:33:30;3.72;;;2.70;;
43042;SDS011;28667;50.758;6.096;2023-07-20T19:35:56;5.03;;;2.95;;
43042;SDS011;28667;50.758;6.096;2023-07-20T19:38:26;3.13;;;2.83;;
43042;SDS011;28667;50.758;6.096;2023-07-20T19:40:52;4.20;;;3.00;;
43042;SDS011;28667;50.758;6.096;2023-07-20T19:43:19;3.83;;;3.00;;
43042;SDS011;28667;50.758;6.096;2023-07-20T19:45:49;3.30;;;3.03;;
43042;SDS011;28667;50.758;6.096;2023-07-20T19:48:15;2.80;;;2.58;;
43042;SDS011;28667;50.758;6.096;2023-07-20T19:50:47;3.67;;;3.30;;
43042;SDS011;28667;50.758;6.096;2023-07-20T19:53:15;4.53;;;3.45;;
43042;SDS011;28667;50.758;6.096;2023-07-20T19:55:42;6.80;;;3.47;;
43042;SDS011;28667;50.758;6.096;2023-07-20T19:58:08;3.63;;;3.28;;
43042;SDS011;28667;50.758;6.096;2023-07-20T20:00:37;3.65;;;3.35;;
43042;SDS011;28667;50.758;6.096;2023-07-20T20:03:04;3.88;;;3.15;;
43042;SDS011;28667;50.758;6.096;2023-07-20T20:05:30;3.22;;;2.78;;
43042;SDS011;28667;50.758;6.096;2023-07-20T20:07:56;4.72;;;3.60;;
43042;SDS011;28667;50.758;6.096;2023-07-20T20:10:22;3.35;;;3.05;;
43042;SDS011;28667;50.758;6.096;2023-07-20T20:12:50;3.38;;;3.05;;
43042;SDS011;28667;50.758;6.096;2023-07-20T20:15:15;3.90;;;2.88;;
43042;SDS011;28667;50.758;6.096;2023-07-20T20:17:42;3.33;;;2.70;;
43042;SDS011;28667;50.758;6.096;2023-07-20T20:20:08;3.45;;;3.15;;
43042;SDS011;28667;50.758;6.096;2023-07-20T20:22:35;2.80;;;2.50;;
43042;SDS011;28667;50.758;6.096;2023-07-20T20:25:01;3.55;;;2.67;;
43042;SDS011;28667;50.758;6.096;2023-07-20T20:27:27;7.55;;;3.80;;
43042;SDS011;28667;50.758;6.096;2023-07-20T20:29:53;3.63;;;3.10;;
43042;SDS011;28667;50.758;6.096;2023-07-20T20:32:20;3.40;;;3.10;;
43042;SDS011;28667;50.758;6.096;2023-07-20T20:34:46;3.47;;;3.17;;
43042;SDS011;28667;50.758;6.096;2023-07-20T20:37:11;3.65;;;3.35;;
43042;SDS011;28667;50.758;6.096;2023-07-20T20:39:37;3.83;;;3.35;;
43042;SDS011;28667;50.758;6.096;2023-07-20T20:42:04;5.35;;;4.47;;
43042;SDS011;28667;50.758;6.096;2023-07-20T20:44:30;5.68;;;3.92;;
43042;SDS011;28667;50.758;6.096;2023-07-20T20:46:56;4.28;;;3.88;;
43042;SDS011;28667;50.758;6.096;2023-07-20T20:49:29;4.40;;;3.85;;
43042;SDS011;28667;50.758;6.096;2023-07-20T20:51:56;4.50;;;4.10;;
43042;SDS011;28667;50.758;6.096;2023-07-20T20:54:21;5.65;;;4.68;;
43042;SDS011;28667;50.758;6.096;2023-07-20T20:56:48;5.40;;;4.78;;
43042;SDS011;28667;50.758;6.096;2023-07-20T20:59:15;7.50;;;4.97;;
43042;SDS011;28667;50.758;6.096;2023-07-20T21:01:45;6.15;;;5.03;;
43042;SDS011;28667;50.758;6.096;2023-07-20T21:04:12;4.20;;;3.83;;
43042;SDS011;28667;50.758;6.096;2023-07-20T21:06:39;5.72;;;5.15;;
43042;SDS011;28667;50.758;6.096;2023-07-20T21:09:05;6.07;;;5.32;;
43042;SDS011;28667;50.758;6.096;2023-07-20T21:11:31;6.55;;;5.43;;
43042;SDS011;28667;50.758;6.096;2023-07-20T21:13:57;6.43;;;5.75;;
43042;SDS011;28667;50.758;6.096;2023-07-20T21:16:23;6.45;;;5.82;;
43042;SDS011;28667;50.758;6.096;2023-07-20T21:18:48;6.38;;;5.45;;
43042;SDS011;28667;50.758;6.096;2023-07-20T21:21:14;6.63;;;6.03;;
43042;SDS011;28667;50.758;6.096;2023-07-20T21:23:40;5.65;;;5.07;;
43042;SDS011;28667;50.758;6.096;2023-07-20T21:26:06;5.63;;;4.80;;
43042;SDS011;28667;50.758;6.096;2023-07-20T21:28:32;8.20;;;5.30;;
43042;SDS011;28667;50.758;6.096;2023-07-20T21:31:01;8.98;;;5.20;;
43042;SDS011;28667;50.758;6.096;2023-07-20T21:33:29;6.10;;;5.50;;
43042;SDS011;28667;50.758;6.096;2023-07-20T21:35:55;5.97;;;5.38;;
43042;SDS011;28667;50.758;6.096;2023-07-20T21:38:21;6.95;;;5.53;;
43042;SDS011;28667;50.758;6.096;2023-07-20T21:40:46;6.95;;;5.90;;
43042;SDS011;28667;50.758;6.096;2023-07-20T21:43:13;8.15;;;5.20;;
43042;SDS011;28667;50.758;6.096;2023-07-20T21:45:39;6.65;;;5.75;;
43042;SDS011;28667;50.758;6.096;2023-07-20T21:48:06;6.50;;;5.90;;
43042;SDS011;28667;50.758;6.096;2023-07-20T21:50:32;5.90;;;5.30;;
43042;SDS011;28667;50.758;6.096;2023-07-20T21:52:58;7.32;;;5.47;;
43042;SDS011;28667;50.758;6.096;2023-07-20T21:55:24;6.00;;;5.47;;
43042;SDS011;28667;50.758;6.096;2023-07-20T21:57:50;7.43;;;6.22;;
43042;SDS011;28667;50.758;6.096;2023-07-20T22:00:16;10.18;;;6.53;;
43042;SDS011;28667;50.758;6.096;2023-07-20T22:02:44;6.00;;;5.40;;
43042;SDS011;28667;50.758;6.096;2023-07-20T22:05:10;5.63;;;5.10;;
43042;SDS011;28667;50.758;6.096;2023-07-20T22:07:39;6.00;;;5.30;;
43042;SDS011;28667;50.758;6.096;2023-07-20T22:10:05;7.13;;;6.15;;
43042;SDS011;28667;50.758;6.096;2023-07-20T22:12:31;6.25;;;5.38;;
43042;SDS011;28667;50.758;6.096;2023-07-20T22:14:57;7.75;;;6.85;;
43042;SDS011;28667;50.758;6.096;2023-07-20T22:17:23;6.65;;;5.78;;
43042;SDS011;28667;50.758;6.096;2023-07-20T22:19:48;6.47;;;5.60;;
43042;SDS011;28667;50.758;6.096;2023-07-20T22:22:14;7.13;;;6.43;;
43042;SDS011;28667;50.758;6.096;2023-07-20T22:24:40;8.95;;;6.07;;
43042;SDS011;28667;50.758;6.096;2023-07-20T22:27:06;8.27;;;6.45;;
43042;SDS011;28667;50.758;6.096;2023-07-20T22:29:34;5.90;;;5.30;;
43042;SDS011;28667;50.758;6.096;2023-07-20T22:32:04;6.72;;;5.97;;
43042;SDS011;28667;50.758;6.096;2023-07-20T22:34:30;7.53;;;6.07;;
43042;SDS011;28667;50.758;6.096;2023-07-20T22:37:01;7.65;;;6.40;;
43042;SDS011;28667;50.758;6.096;2023-07-20T22:39:29;6.90;;;5.90;;
43042;SDS011;28667;50.758;6.096;2023-07-20T22:42:02;7.28;;;6.35;;
43042;SDS011;28667;50.758;6.096;2023-07-20T22:44:28;9.20;;;6.50;;
43042;SDS011;28667;50.758;6.096;2023-07-20T22:46:55;8.98;;;7.18;;
43042;SDS011;28667;50.758;6.096;2023-07-20T22:49:23;6.72;;;5.80;;
43042;SDS011;28667;50.758;6.096;2023-07-20T22:51:50;9.18;;;7.53;;
43042;SDS011;28667;50.758;6.096;2023-07-20T22:54:15;9.32;;;7.13;;
43042;SDS011;28667;50.758;6.096;2023-07-20T22:56:41;7.40;;;6.13;;
43042;SDS011;28667;50.758;6.096;2023-07-20T22:59:07;9.27;;;7.22;;
43042;SDS011;28667;50.758;6.096;2023-07-20T23:01:34;8.18;;;6.95;;
43042;SDS011;28667;50.758;6.096;2023-07-20T23:04:01;9.48;;;7.07;;
43042;SDS011;28667;50.758;6.096;2023-07-20T23:06:27;9.38;;;7.45;;
43042;SDS011;28667;50.758;6.096;2023-07-20T23:08:52;10.13;;;7.72;;
43042;SDS011;28667;50.758;6.096;2023-07-20T23:11:18;8.32;;;7.10;;
43042;SDS011;28667;50.758;6.096;2023-07-20T23:13:44;7.30;;;6.50;;
43042;SDS011;28667;50.758;6.096;2023-07-20T23:16:09;7.00;;;6.10;;
43042;SDS011;28667;50.758;6.096;2023-07-20T23:18:35;9.15;;;7.75;;
43042;SDS011;28667;50.758;6.096;2023-07-20T23:21:01;8.73;;;7.18;;
43042;SDS011;28667;50.758;6.096;2023-07-20T23:23:28;9.02;;;6.72;;
43042;SDS011;28667;50.758;6.096;2023-07-20T23:25:55;9.00;;;7.53;;
43042;SDS011;28667;50.758;6.096;2023-07-20T23:28:21;10.55;;;7.38;;
43042;SDS011;28667;50.758;6.096;2023-07-20T23:30:48;8.90;;;6.28;;
43042;SDS011;28667;50.758;6.096;2023-07-20T23:33:18;8.15;;;6.95;;
43042;SDS011;28667;50.758;6.096;2023-07-20T23:35:47;7.97;;;6.88;;
43042;SDS011;28667;50.758;6.096;2023-07-20T23:38:13;8.00;;;6.82;;
43042;SDS011;28667;50.758;6.096;2023-07-20T23:40:39;8.32;;;6.60;;
43042;SDS011;28667;50.758;6.096;2023-07-20T23:43:05;10.27;;;7.25;;
43042;SDS011;28667;50.758;6.096;2023-07-20T23:45:31;7.43;;;5.43;;
43042;SDS011;28667;50.758;6.096;2023-07-20T23:47:57;6.05;;;5.45;;
43042;SDS011;28667;50.758;6.096;2023-07-20T23:50:23;9.35;;;6.85;;
43042;SDS011;28667;50.758;6.096;2023-07-20T23:52:50;8.38;;;6.90;;
43042;SDS011;28667;50.758;6.096;2023-07-20T23:55:17;6.35;;;5.75;;
43042;SDS011;28667;50.758;6.096;2023-07-20T23:57:44;8.95;;;6.75;;
